Time;durP1;ratioP1;P1;durP2;ratioP2;P2;SDS_P1;SDS_P2;PMS_P1;PMS_P2;Temp;Humidity;BMP_temperature;BMP_pressure;BME280_temperature;BME280_humidity;BME280_pressure;Samples;Min_cycle;Max_cycle;Signal;HPM_P1;HPM_P2
2022/09/05 00:00:01;;;;;;;492.70;89.50;;;41.50;40.20;;;;;;5008010;28;20037;-62
2022/09/05 00:02:56;;;;;;;540.00;98.70;;;41.60;39.30;;;;;;4975359;28;20417;-64
2022/09/05 00:05:48;;;;;;;81.05;13.50;;;41.50;39.00;;;;;;4990305;28;20491;-63
2022/09/05 00:08:33;;;;;;;372.73;66.57;;;41.60;39.30;;;;;;4990804;28;20498;-64
2022/09/05 00:11:15;;;;;;;26.70;4.70;;;41.60;38.90;;;;;;4990704;28;20096;-65
2022/09/05 00:14:35;;;;;;;45.97;8.73;;;41.80;38.30;;;;;;4991186;28;20046;-65
2022/09/05 00:17:13;;;;;;;16.00;3.45;;;41.90;38.30;;;;;;4908888;29;20051;-65
2022/09/05 00:19:40;;;;;;;9.00;2.03;;;42.00;38.90;;;;;;5008534;28;20404;-65
2022/09/05 00:22:09;;;;;;;4.43;1.52;;;42.00;39.50;;;;;;4990580;28;20049;-63
2022/09/05 00:24:54;;;;;;;5.80;1.38;;;42.00;38.70;;;;;;4989152;28;20022;-64
2022/09/05 00:27:38;;;;;;;7.75;1.35;;;42.00;38.10;;;;;;4991560;28;20121;-65
2022/09/05 00:30:17;;;;;;;4.65;1.50;;;42.00;38.60;;;;;;4994392;28;20110;-64
2022/09/05 00:32:43;;;;;;;7.00;1.58;;;42.00;38.70;;;;;;4997756;28;20034;-62
2022/09/05 00:35:40;;;;;;;5.40;1.85;;;42.00;38.20;;;;;;5011756;28;20120;-66
2022/09/05 00:38:14;;;;;;;6.43;1.80;;;41.90;38.20;;;;;;4994131;28;20468;-63
2022/09/05 00:40:55;;;;;;;7.43;1.60;;;41.90;39.50;;;;;;4995905;28;20026;-67
2022/09/05 00:43:39;;;;;;;4.18;1.65;;;41.80;39.40;;;;;;4993921;28;20069;-61
2022/09/05 00:46:12;;;;;;;4.07;1.40;;;41.80;38.80;;;;;;4979153;28;20040;-64
2022/09/05 00:48:58;;;;;;;4.00;1.45;;;41.80;38.30;;;;;;4995357;28;20595;-64
2022/09/05 00:51:27;;;;;;;3.60;1.40;;;41.70;38.40;;;;;;4978030;28;20069;-64
2022/09/05 00:53:59;;;;;;;8.98;1.40;;;41.70;38.60;;;;;;5012318;28;20033;-65
2022/09/05 00:56:56;;;;;;;4.18;1.65;;;41.50;39.10;;;;;;4993121;28;20088;-64
2022/09/05 00:59:41;;;;;;;7.20;1.60;;;41.50;38.90;;;;;;5011222;28;20025;-64
2022/09/05 01:02:41;;;;;;;11.15;1.85;;;41.40;39.20;;;;;;5011653;28;20089;-63
2022/09/05 01:05:32;;;;;;;7.53;1.83;;;41.30;40.00;;;;;;4993399;28;20077;-64
2022/09/05 01:08:32;;;;;;;6.47;1.33;;;41.10;39.00;;;;;;4993703;28;20499;-64
2022/09/05 01:11:05;;;;;;;10.23;1.95;;;41.00;39.10;;;;;;4994706;28;20033;-64
2022/09/05 01:13:44;;;;;;;9.35;2.00;;;40.90;39.50;;;;;;5011529;28;20101;-64
2022/09/05 01:16:29;;;;;;;7.57;1.92;;;40.80;39.40;;;;;;5011833;28;20087;-64
2022/09/05 01:19:10;;;;;;;8.07;1.50;;;40.80;40.30;;;;;;4991221;28;20022;-65
2022/09/05 01:21:48;;;;;;;5.13;1.30;;;40.70;40.00;;;;;;4993551;28;20026;-64
2022/09/05 01:24:36;;;;;;;14.00;2.40;;;40.60;40.30;;;;;;4992536;28;20087;-62
2022/09/05 01:27:39;;;;;;;9.15;2.00;;;40.50;40.50;;;;;;4992408;28;20022;-67
2022/09/05 01:30:14;;;;;;;6.63;1.83;;;40.30;40.60;;;;;;4993666;28;20900;-63
2022/09/05 01:32:46;;;;;;;5.95;1.92;;;40.30;40.80;;;;;;5009064;28;20026;-64
2022/09/05 01:35:31;;;;;;;10.85;2.10;;;40.30;40.30;;;;;;4997071;28;20033;-63
2022/09/05 01:38:08;;;;;;;5.82;1.83;;;40.30;40.60;;;;;;4992996;28;20076;-64
2022/09/05 01:40:44;;;;;;;9.07;1.88;;;40.20;40.90;;;;;;5011045;28;20103;-61
2022/09/05 01:43:52;;;;;;;14.40;1.80;;;40.20;40.60;;;;;;4992717;28;20030;-64
2022/09/05 01:46:43;;;;;;;7.38;1.85;;;40.10;40.50;;;;;;4991649;28;20099;-64
2022/09/05 01:49:24;;;;;;;10.25;1.83;;;40.10;40.60;;;;;;4992192;28;20037;-63
2022/09/05 01:52:18;;;;;;;9.77;2.30;;;39.90;41.30;;;;;;5009675;28;20022;-64
2022/09/05 01:55:09;;;;;;;29.08;2.50;;;39.80;41.60;;;;;;4991527;28;20033;-64
2022/09/05 01:57:57;;;;;;;9.90;2.72;;;39.70;41.60;;;;;;4993776;28;20491;-63
2022/09/05 02:00:47;;;;;;;190.10;33.10;;;39.60;41.80;;;;;;4992203;28;20032;-62
2022/09/05 02:03:37;;;;;;;145.45;25.50;;;39.50;41.70;;;;;;4962668;28;20163;-62
2022/09/05 02:06:32;;;;;;;73.43;13.43;;;39.40;42.10;;;;;;4997273;28;20083;-63
2022/09/05 02:09:04;;;;;;;33.70;7.25;;;39.40;42.30;;;;;;4990825;28;20023;-63
2022/09/05 02:12:20;;;;;;;19.65;5.15;;;39.30;42.00;;;;;;4992751;28;20038;-62
2022/09/05 02:15:08;;;;;;;11.77;3.00;;;39.30;41.80;;;;;;4986922;28;20069;-62
2022/09/05 02:17:41;;;;;;;6.97;2.67;;;39.20;42.00;;;;;;4995215;28;20139;-63
2022/09/05 02:20:46;;;;;;;16.20;3.47;;;39.20;41.70;;;;;;4990584;28;20041;-62
2022/09/05 02:23:52;;;;;;;8.75;2.95;;;39.20;41.80;;;;;;4895622;29;20463;-62
2022/09/05 02:26:28;;;;;;;7.78;2.28;;;39.10;42.40;;;;;;4881903;29;20032;-63
2022/09/05 02:29:14;;;;;;;12.07;2.70;;;39.00;42.40;;;;;;4911912;29;20514;-60
2022/09/05 02:31:47;;;;;;;10.93;3.60;;;38.90;42.80;;;;;;4911736;29;20044;-63
2022/09/05 02:34:21;;;;;;;15.88;3.65;;;38.80;42.80;;;;;;4895174;29;20035;-63
2022/09/05 02:37:02;;;;;;;13.63;3.35;;;38.80;42.90;;;;;;4911997;29;20031;-63
2022/09/05 02:39:45;;;;;;;11.45;3.63;;;38.80;42.90;;;;;;4911101;29;20083;-63
2022/09/05 02:42:25;;;;;;;20.38;3.42;;;38.70;43.10;;;;;;4910011;29;20028;-66
2022/09/05 02:45:46;;;;;;;11.45;2.83;;;38.70;42.90;;;;;;4895445;29;20043;-63
2022/09/05 02:48:21;;;;;;;14.10;3.80;;;38.70;43.00;;;;;;4854150;29;20074;-62
2022/09/05 02:51:06;;;;;;;13.90;3.50;;;38.60;43.00;;;;;;4910423;29;20183;-64
2022/09/05 02:53:33;;;;;;;22.65;3.50;;;38.60;43.50;;;;;;4910707;29;20047;-63
2022/09/05 02:56:28;;;;;;;18.02;2.92;;;38.50;43.60;;;;;;4913862;28;20028;-64
2022/09/05 02:59:03;;;;;;;16.55;2.97;;;38.50;43.60;;;;;;4991073;28;20036;-63
2022/09/05 03:01:43;;;;;;;19.40;3.25;;;38.50;43.30;;;;;;4975412;28;20022;-64
2022/09/05 03:04:28;;;;;;;14.63;3.08;;;38.40;43.40;;;;;;5008062;28;20492;-62
2022/09/05 03:07:22;;;;;;;9.23;2.85;;;38.40;43.60;;;;;;4991537;28;20026;-63
2022/09/05 03:10:07;;;;;;;10.68;2.85;;;38.40;43.50;;;;;;4991530;28;20431;-64
2022/09/05 03:13:01;;;;;;;13.07;2.58;;;38.30;43.70;;;;;;4991673;28;20100;-64
2022/09/05 03:15:38;;;;;;;9.73;2.50;;;38.30;43.90;;;;;;4990359;28;20026;-63
2022/09/05 03:18:23;;;;;;;10.40;2.92;;;38.20;44.30;;;;;;4978936;28;20033;-63
2022/09/05 03:21:07;;;;;;;8.75;2.75;;;38.10;44.20;;;;;;4987908;28;20026;-62
2022/09/05 03:24:04;;;;;;;10.82;2.90;;;38.10;44.20;;;;;;5008876;28;20046;-64
2022/09/05 03:26:50;;;;;;;15.98;3.60;;;38.00;44.50;;;;;;4975736;28;20476;-62
2022/09/05 03:29:38;;;;;;;11.82;4.00;;;38.00;44.30;;;;;;4993057;28;20057;-62
2022/09/05 03:32:36;;;;;;;13.18;3.38;;;37.90;44.60;;;;;;4991288;28;20033;-64
2022/09/05 03:35:31;;;;;;;14.45;4.30;;;37.80;44.90;;;;;;5007770;28;20022;-64
2022/09/05 03:38:22;;;;;;;18.90;4.07;;;37.70;45.40;;;;;;4982755;28;20120;-63
2022/09/05 03:41:05;;;;;;;17.92;4.38;;;37.50;45.50;;;;;;5008304;28;20018;-62
2022/09/05 03:44:04;;;;;;;18.30;4.93;;;37.40;45.80;;;;;;4991927;28;20380;-63
2022/09/05 03:46:55;;;;;;;22.75;5.95;;;37.40;46.40;;;;;;4973601;28;20026;-63
2022/09/05 03:49:49;;;;;;;20.17;5.47;;;37.30;46.60;;;;;;4990927;28;20113;-62
2022/09/05 03:52:25;;;;;;;17.95;6.22;;;37.20;46.80;;;;;;5008493;28;20431;-64
2022/09/05 03:55:19;;;;;;;21.45;6.35;;;37.10;46.90;;;;;;4980086;28;20056;-65
2022/09/05 03:58:13;;;;;;;12.65;6.03;;;37.10;46.90;;;;;;4989274;28;20026;-63
2022/09/05 04:00:47;;;;;;;18.95;5.22;;;37.00;47.20;;;;;;5008813;28;20030;-63
2022/09/05 04:03:30;;;;;;;20.58;5.45;;;36.90;47.40;;;;;;4977011;28;20033;-62
2022/09/05 04:06:07;;;;;;;17.13;4.60;;;36.90;47.70;;;;;;4978346;28;20022;-62
2022/09/05 04:08:34;;;;;;;20.35;4.82;;;36.80;48.00;;;;;;5012898;28;20105;-65
2022/09/05 04:11:07;;;;;;;23.42;5.20;;;36.80;48.20;;;;;;4997046;28;20026;-63
2022/09/05 04:13:44;;;;;;;30.10;6.05;;;36.70;48.30;;;;;;4995345;28;20030;-63
2022/09/05 04:16:21;;;;;;;18.27;5.10;;;36.60;48.80;;;;;;4995248;28;20034;-64
2022/09/05 04:18:53;;;;;;;16.17;5.05;;;36.60;49.10;;;;;;4998321;28;20435;-65
2022/09/05 04:21:28;;;;;;;27.10;5.10;;;36.50;49.30;;;;;;5009044;28;20053;-63
2022/09/05 04:24:31;;;;;;;22.08;5.70;;;36.50;50.20;;;;;;4978541;28;20113;-67
2022/09/05 04:27:11;;;;;;;18.35;5.88;;;36.40;49.90;;;;;;4993899;28;20379;-66
2022/09/05 04:29:53;;;;;;;24.23;5.75;;;36.40;49.70;;;;;;4994755;28;20026;-68
2022/09/05 04:32:32;;;;;;;13.20;4.97;;;36.40;49.60;;;;;;4992649;28;20492;-66
2022/09/05 04:35:17;;;;;;;21.33;5.80;;;36.40;49.50;;;;;;5010368;28;20112;-66
2022/09/05 04:37:46;;;;;;;26.52;6.05;;;36.40;49.40;;;;;;4991969;28;20026;-66
2022/09/05 04:40:31;;;;;;;22.63;6.13;;;36.30;49.50;;;;;;5010775;28;20030;-65
2022/09/05 04:43:01;;;;;;;18.80;5.97;;;36.30;49.50;;;;;;5011744;28;20033;-65
2022/09/05 04:45:32;;;;;;;18.05;5.35;;;36.30;49.30;;;;;;4976212;28;20058;-66
2022/09/05 04:48:04;;;;;;;16.50;5.45;;;36.30;48.80;;;;;;4975167;28;20056;-66
2022/09/05 04:50:32;;;;;;;25.88;5.35;;;36.20;48.40;;;;;;5008893;28;20116;-66
2022/09/05 04:53:08;;;;;;;14.48;5.32;;;36.20;48.50;;;;;;4991679;28;20495;-64
2022/09/05 04:55:50;;;;;;;21.60;5.70;;;36.20;48.70;;;;;;5008946;28;20488;-65
2022/09/05 04:58:26;;;;;;;21.75;5.30;;;36.20;48.90;;;;;;4990712;28;20432;-66
2022/09/05 05:01:15;;;;;;;;;;;36.10;48.80;;;;;;4992625;28;20036;-66
2022/09/05 05:03:42;;;;;;;14.73;4.20;;;36.10;48.90;;;;;;4985022;28;19923;-65
2022/09/05 05:06:26;;;;;;;16.00;4.20;;;36.00;49.00;;;;;;4976146;28;20034;-67
2022/09/05 05:09:18;;;;;;;18.33;4.68;;;36.00;48.90;;;;;;5009799;28;20059;-65
2022/09/05 05:11:50;;;;;;;22.35;4.20;;;36.00;49.10;;;;;;4993849;28;20042;-66
2022/09/05 05:14:28;;;;;;;19.70;4.90;;;35.90;49.30;;;;;;5010134;28;20038;-66
2022/09/05 05:17:09;;;;;;;17.13;4.88;;;35.90;49.40;;;;;;4993063;28;20030;-68
2022/09/05 05:19:43;;;;;;;18.73;5.03;;;35.90;49.40;;;;;;4993813;28;20092;-65
2022/09/05 05:22:15;;;;;;;18.00;4.72;;;35.80;49.50;;;;;;5006794;28;20042;-64
2022/09/05 05:24:45;;;;;;;19.40;5.60;;;35.80;49.80;;;;;;4993261;28;20028;-65
2022/09/05 05:27:15;;;;;;;19.85;4.75;;;35.80;49.90;;;;;;4976389;28;20030;-67
2022/09/05 05:30:03;;;;;;;23.02;6.10;;;35.80;50.10;;;;;;4991172;28;20055;-66
2022/09/05 05:32:33;;;;;;;16.52;6.25;;;35.70;50.20;;;;;;4991667;28;20029;-65
2022/09/05 05:35:09;;;;;;;12.73;5.80;;;35.70;50.50;;;;;;5009556;28;20639;-66
2022/09/05 05:37:37;;;;;;;15.18;4.97;;;35.70;50.80;;;;;;4994032;28;20037;-65
2022/09/05 05:40:06;;;;;;;16.60;4.30;;;35.70;51.00;;;;;;5010473;28;20041;-66
2022/09/05 05:42:32;;;;;;;12.77;4.03;;;35.70;51.10;;;;;;4992340;28;20152;-66
2022/09/05 05:44:59;;;;;;;17.10;4.00;;;35.60;50.90;;;;;;5010175;28;20456;-66
2022/09/05 05:47:43;;;;;;;17.88;4.78;;;35.60;51.00;;;;;;5010152;28;20029;-66
2022/09/05 05:50:32;;;;;;;12.10;4.55;;;35.60;51.20;;;;;;5013945;28;20050;-65
2022/09/05 05:53:37;;;;;;;10.90;4.32;;;35.60;51.20;;;;;;5010526;28;20045;-65
2022/09/05 05:56:21;;;;;;;11.88;4.53;;;35.60;51.10;;;;;;4906497;28;20084;-66
2022/09/05 05:59:12;;;;;;;14.50;4.75;;;35.50;51.30;;;;;;4992387;28;20116;-66
2022/09/05 06:01:56;;;;;;;14.68;5.00;;;35.50;51.40;;;;;;4992793;28;20028;-66
2022/09/05 06:05:09;;;;;;;13.13;4.28;;;35.40;51.40;;;;;;4992569;28;20026;-65
2022/09/05 06:07:51;;;;;;;12.90;4.20;;;35.40;51.40;;;;;;5009046;28;20026;-65
2022/09/05 06:10:51;;;;;;;18.75;4.00;;;35.40;51.60;;;;;;5008479;28;20034;-65
2022/09/05 06:13:45;;;;;;;10.35;3.70;;;35.30;51.90;;;;;;4992204;28;20041;-66
2022/09/05 06:16:56;;;;;;;15.23;4.90;;;35.30;53.10;;;;;;5008483;28;20033;-66
2022/09/05 06:19:37;;;;;;;26.67;5.90;;;35.20;52.50;;;;;;4914919;29;20035;-65
2022/09/05 06:22:38;;;;;;;17.15;5.70;;;35.10;52.00;;;;;;4924897;29;20082;-66
2022/09/05 06:25:25;;;;;;;17.65;5.82;;;35.10;51.90;;;;;;4835086;29;20118;-65
2022/09/05 06:28:14;;;;;;;17.42;6.43;;;35.10;51.90;;;;;;4821842;29;20455;-66
2022/09/05 06:31:16;;;;;;;24.73;6.47;;;35.00;51.90;;;;;;4836282;29;21449;-66
2022/09/05 06:33:55;;;;;;;23.95;6.53;;;35.40;51.50;;;;;;4820556;29;20033;-67
2022/09/05 06:36:30;;;;;;;22.90;6.90;;;35.40;51.60;;;;;;4835977;29;20041;-66
2022/09/05 06:39:09;;;;;;;25.83;7.28;;;35.50;51.60;;;;;;4838413;29;20041;-63
2022/09/05 06:41:40;;;;;;;26.55;7.60;;;35.50;51.70;;;;;;4837245;29;20029;-67
2022/09/05 06:44:18;;;;;;;37.03;7.82;;;35.50;51.80;;;;;;4836693;29;20049;-67
2022/09/05 06:46:47;;;;;;;24.40;6.68;;;35.50;51.90;;;;;;4836380;29;20036;-66
2022/09/05 06:49:16;;;;;;;24.55;7.47;;;35.50;51.90;;;;;;4834771;29;20451;-68
2022/09/05 06:52:01;;;;;;;26.38;6.68;;;35.50;52.70;;;;;;4923128;29;20051;-67
2022/09/05 06:55:02;;;;;;;27.40;6.88;;;35.50;52.00;;;;;;4923750;29;20028;-66
2022/09/05 06:57:37;;;;;;;25.73;7.15;;;35.50;51.90;;;;;;4923476;29;20679;-68
2022/09/05 07:00:24;;;;;;;27.95;7.72;;;35.40;52.00;;;;;;4924411;29;20031;-66
2022/09/05 07:03:06;;;;;;;27.95;7.78;;;35.40;51.90;;;;;;4996874;28;20034;-67
2022/09/05 07:05:49;;;;;;;37.15;8.07;;;35.40;53.40;;;;;;5008981;28;20036;-66
2022/09/05 07:08:19;;;;;;;27.80;8.40;;;35.40;52.70;;;;;;4990160;28;20084;-65
2022/09/05 07:10:57;;;;;;;34.95;8.00;;;35.40;52.70;;;;;;4991120;28;20037;-65
2022/09/05 07:13:44;;;;;;;25.73;7.50;;;35.30;52.40;;;;;;5009466;28;20022;-65
2022/09/05 07:16:38;;;;;;;33.30;8.18;;;35.40;52.50;;;;;;5007420;28;20037;-65
2022/09/05 07:19:32;;;;;;;29.60;8.50;;;35.40;52.30;;;;;;5014564;28;20026;-66
2022/09/05 07:22:22;;;;;;;24.40;7.40;;;35.40;52.00;;;;;;4991388;28;20899;-65
2022/09/05 07:24:51;;;;;;;27.08;7.40;;;35.40;52.70;;;;;;4974306;28;20072;-65
2022/09/05 07:27:36;;;;;;;22.92;6.40;;;35.40;52.90;;;;;;5008352;28;20026;-65
2022/09/05 07:30:05;;;;;;;20.88;5.53;;;35.50;52.50;;;;;;5009057;28;20034;-66
2022/09/05 07:32:41;;;;;;;15.27;5.18;;;35.40;52.20;;;;;;4991717;28;20033;-65
2022/09/05 07:35:21;;;;;;;24.58;5.18;;;35.40;52.10;;;;;;4990265;28;20026;-65
2022/09/05 07:38:13;;;;;;;23.58;5.68;;;35.30;52.00;;;;;;4994858;28;20116;-66
2022/09/05 07:41:03;;;;;;;16.17;4.25;;;35.30;52.50;;;;;;4997698;28;20044;-67
2022/09/05 07:43:38;;;;;;;13.02;4.40;;;35.30;53.40;;;;;;4997327;28;20499;-65
2022/09/05 07:46:16;;;;;;;17.30;4.27;;;35.20;53.00;;;;;;5012271;28;20029;-65
2022/09/05 07:48:47;;;;;;;14.35;4.03;;;35.20;53.00;;;;;;5010572;28;20356;-65
2022/09/05 07:51:30;;;;;;;17.20;3.83;;;35.10;53.70;;;;;;4977360;28;20030;-64
2022/09/05 07:54:23;;;;;;;18.33;3.58;;;35.10;53.20;;;;;;4979496;28;20472;-64
2022/09/05 07:57:04;;;;;;;14.32;3.33;;;35.00;53.40;;;;;;5003511;28;20518;-65
2022/09/05 07:59:39;;;;;;;13.57;3.50;;;35.00;53.70;;;;;;5008651;28;20538;-65
2022/09/05 08:02:09;;;;;;;15.35;3.72;;;35.00;53.70;;;;;;5012081;28;20021;-65
2022/09/05 08:04:40;;;;;;;12.02;3.60;;;35.00;54.40;;;;;;4977872;28;20075;-65
2022/09/05 08:07:30;;;;;;;14.88;3.75;;;34.90;53.70;;;;;;4994847;28;20074;-66
2022/09/05 08:10:08;;;;;;;13.80;3.38;;;34.90;53.70;;;;;;4992598;28;20033;-66
2022/09/05 08:13:00;;;;;;;18.85;4.10;;;34.80;53.80;;;;;;4993440;28;20721;-69
2022/09/05 08:15:30;;;;;;;14.38;3.17;;;34.70;54.20;;;;;;4991656;28;20408;-66
2022/09/05 08:18:15;;;;;;;14.35;3.30;;;34.70;54.00;;;;;;5015158;28;20030;-65
2022/09/05 08:20:45;;;;;;;8.73;2.83;;;34.60;53.80;;;;;;4995686;28;20068;-65
2022/09/05 08:23:39;;;;;;;7.75;3.03;;;34.60;54.00;;;;;;4992965;28;20127;-65
2022/09/05 08:26:14;;;;;;;8.98;2.80;;;34.50;54.10;;;;;;4992729;28;20497;-65
2022/09/05 08:28:51;;;;;;;14.20;2.60;;;34.50;54.50;;;;;;5007879;28;20029;-65
2022/09/05 08:31:34;;;;;;;17.48;3.13;;;34.40;54.10;;;;;;5010864;28;20026;-66
2022/09/05 08:34:03;;;;;;;13.05;3.00;;;34.40;54.10;;;;;;4993450;28;20124;-66
2022/09/05 08:36:45;;;;;;;13.43;3.35;;;34.40;54.20;;;;;;4962188;28;20026;-67
2022/09/05 08:39:17;;;;;;;8.65;2.45;;;34.40;54.60;;;;;;4994037;28;20110;-67
2022/09/05 08:41:52;;;;;;;12.82;2.67;;;34.30;54.50;;;;;;5011310;28;20026;-65
2022/09/05 08:44:39;;;;;;;12.73;2.77;;;34.30;55.20;;;;;;5004760;28;20041;-66
2022/09/05 08:47:24;;;;;;;9.48;2.58;;;34.30;55.00;;;;;;4991389;28;20267;-66
2022/09/05 08:50:15;;;;;;;13.40;2.10;;;34.20;54.60;;;;;;4993574;28;20427;-67
2022/09/05 08:52:48;;;;;;;8.80;2.78;;;34.20;54.80;;;;;;4992389;28;20554;-66
2022/09/05 08:55:53;;;;;;;12.63;3.30;;;34.20;54.90;;;;;;4993164;28;20037;-66
2022/09/05 08:58:47;;;;;;;13.07;3.00;;;34.10;55.00;;;;;;4991847;28;20554;-66
2022/09/05 09:01:41;;;;;;;9.20;2.90;;;34.10;55.10;;;;;;4963147;28;20636;-65
2022/09/05 09:04:36;;;;;;;10.10;3.00;;;34.00;55.30;;;;;;5011573;28;20092;-65
2022/09/05 09:07:21;;;;;;;11.77;2.83;;;34.00;55.60;;;;;;5008357;28;20080;-65
2022/09/05 09:09:57;;;;;;;9.13;2.47;;;33.90;55.80;;;;;;4991875;28;20029;-66
2022/09/05 09:12:35;;;;;;;13.23;3.45;;;33.90;56.10;;;;;;4993771;28;20029;-65
2022/09/05 09:15:09;;;;;;;10.38;2.55;;;33.80;56.00;;;;;;4992060;28;20128;-65
2022/09/05 09:17:48;;;;;;;15.98;2.80;;;33.80;56.60;;;;;;5012003;28;20557;-66
2022/09/05 09:20:35;;;;;;;12.73;2.97;;;33.80;57.50;;;;;;4993794;28;20022;-66
2022/09/05 09:23:04;;;;;;;18.75;3.92;;;33.70;57.20;;;;;;4993302;28;20056;-66
2022/09/05 09:26:14;;;;;;;10.35;3.45;;;33.70;57.70;;;;;;4989136;28;20083;-67
2022/09/05 09:28:46;;;;;;;11.93;3.22;;;33.60;57.20;;;;;;4930627;29;20155;-66
2022/09/05 09:31:28;;;;;;;15.68;3.13;;;33.60;57.30;;;;;;4931059;29;20438;-65
2022/09/05 09:34:21;;;;;;;16.27;3.50;;;33.60;57.10;;;;;;4930590;29;20040;-66
2022/09/05 09:37:10;;;;;;;21.02;3.65;;;33.50;57.10;;;;;;4930668;29;20111;-65
2022/09/05 09:40:13;;;;;;;13.43;3.13;;;33.50;57.50;;;;;;4930960;28;20075;-67
2022/09/05 09:43:00;;;;;;;19.27;3.75;;;33.50;57.40;;;;;;4931641;29;20024;-65
2022/09/05 09:45:54;;;;;;;12.18;2.95;;;33.50;57.50;;;;;;4915122;29;20364;-66
2022/09/05 09:48:38;;;;;;;14.65;3.45;;;33.40;57.80;;;;;;4930633;29;20032;-65
2022/09/05 09:51:32;;;;;;;11.57;2.92;;;33.40;58.20;;;;;;4930811;29;20585;-66
2022/09/05 09:54:25;;;;;;;20.02;4.03;;;33.40;58.20;;;;;;4930663;29;20130;-64
2022/09/05 09:57:25;;;;;;;19.05;3.92;;;33.30;57.90;;;;;;4930660;29;20035;-67
2022/09/05 10:00:06;;;;;;;16.00;3.65;;;33.30;57.80;;;;;;4926978;29;20134;-65
2022/09/05 10:03:05;;;;;;;21.80;4.07;;;33.20;58.50;;;;;;4930785;29;20549;-65
2022/09/05 10:05:54;;;;;;;16.58;3.92;;;33.20;58.80;;;;;;4951785;28;20038;-65
2022/09/05 10:08:39;;;;;;;14.27;4.13;;;33.10;59.40;;;;;;4992832;28;20034;-65
2022/09/05 10:11:37;;;;;;;18.17;4.15;;;33.10;58.60;;;;;;4992039;28;20495;-65
2022/09/05 10:14:07;;;;;;;22.30;4.82;;;33.00;58.30;;;;;;4994618;28;20030;-65
2022/09/05 10:16:45;;;;;;;25.83;7.32;;;33.00;58.40;;;;;;4993032;28;20084;-66
2022/09/05 10:19:41;;;;;;;57.95;10.30;;;33.10;58.00;;;;;;4992858;28;20496;-65
2022/09/05 10:22:29;;;;;;;54.20;11.60;;;33.10;57.50;;;;;;4992196;28;20061;-64
2022/09/05 10:25:32;;;;;;;64.57;13.55;;;33.20;57.40;;;;;;5008635;28;20062;-64
2022/09/05 10:28:21;;;;;;;65.15;13.80;;;33.20;57.30;;;;;;4990368;28;20025;-64
2022/09/05 10:31:00;;;;;;;81.13;17.02;;;33.20;57.20;;;;;;4990694;28;20117;-65
2022/09/05 10:33:37;;;;;;;66.47;16.30;;;33.30;57.10;;;;;;4991594;28;20041;-66
2022/09/05 10:36:23;;;;;;;74.20;16.20;;;33.20;57.10;;;;;;4991377;28;20391;-65
2022/09/05 10:39:27;;;;;;;78.47;16.42;;;33.20;57.00;;;;;;5007524;28;20033;-65
2022/09/05 10:41:56;;;;;;;73.60;16.08;;;33.20;57.50;;;;;;4987836;28;20038;-65
2022/09/05 10:44:39;;;;;;;59.22;14.57;;;33.10;58.30;;;;;;4992264;28;20022;-66
2022/09/05 10:47:22;;;;;;;50.45;13.32;;;33.00;57.90;;;;;;5009122;28;20026;-67
2022/09/05 10:49:53;;;;;;;62.97;14.02;;;33.00;58.20;;;;;;4989775;28;20038;-66
2022/09/05 10:52:33;;;;;;;57.95;14.05;;;33.00;58.00;;;;;;4990454;28;20084;-66
2022/09/05 10:55:18;;;;;;;57.78;12.82;;;33.00;58.20;;;;;;4991649;28;20056;-67
2022/09/05 10:57:56;;;;;;;61.47;13.27;;;33.00;58.50;;;;;;4990948;28;20076;-67
2022/09/05 11:00:41;;;;;;;82.40;15.15;;;33.00;58.40;;;;;;4990659;28;20706;-65
2022/09/05 11:03:17;;;;;;;69.30;13.00;;;32.90;58.40;;;;;;4990134;28;20472;-65
2022/09/05 11:06:04;;;;;;;55.13;13.25;;;32.90;58.40;;;;;;4992290;28;20022;-65
2022/09/05 11:08:40;;;;;;;55.15;13.63;;;32.80;58.60;;;;;;5008431;28;20046;-65
2022/09/05 11:11:17;;;;;;;56.85;12.75;;;32.80;59.70;;;;;;5008690;28;20519;-65
2022/09/05 11:13:49;;;;;;;62.00;12.68;;;32.70;60.50;;;;;;4991860;28;20037;-67
2022/09/05 11:16:25;;;;;;;52.30;12.57;;;32.60;59.30;;;;;;4975399;28;20034;-64
2022/09/05 11:19:08;;;;;;;67.18;12.45;;;32.70;59.30;;;;;;5011250;28;20037;-65
2022/09/05 11:21:41;;;;;;;72.20;13.10;;;32.70;59.20;;;;;;4991595;28;20388;-65
2022/09/05 11:24:34;;;;;;;61.53;12.55;;;32.70;59.10;;;;;;4989942;28;20061;-65
2022/09/05 11:27:05;;;;;;;63.80;13.88;;;32.60;59.10;;;;;;4989251;28;20033;-65
2022/09/05 11:29:37;;;;;;;61.55;12.13;;;32.50;59.80;;;;;;4991297;28;20038;-64
2022/09/05 11:32:03;;;;;;;63.42;12.32;;;32.50;59.30;;;;;;4989873;28;20476;-67
2022/09/05 11:35:02;;;;;;;54.70;11.77;;;32.50;58.80;;;;;;5008563;28;20065;-65
2022/09/05 11:38:06;;;;;;;63.65;12.93;;;32.50;60.10;;;;;;4989551;28;20361;-65
2022/09/05 11:40:53;;;;;;;69.97;13.93;;;32.40;59.30;;;;;;4990761;28;20049;-67
2022/09/05 11:43:39;;;;;;;66.53;12.75;;;32.30;59.10;;;;;;4989851;28;20022;-65
2022/09/05 11:46:31;;;;;;;55.72;10.68;;;32.30;59.20;;;;;;4990659;28;20030;-65
2022/09/05 11:49:42;;;;;;;38.67;8.60;;;32.30;59.30;;;;;;4981561;28;20029;-65
2022/09/05 11:52:46;;;;;;;23.50;5.82;;;32.40;59.30;;;;;;4969647;28;20030;-65
2022/09/05 11:55:34;;;;;;;17.33;4.90;;;32.30;59.30;;;;;;4990437;28;20026;-64
2022/09/05 11:58:19;;;;;;;17.70;4.88;;;32.30;59.40;;;;;;5008084;28;20461;-65
2022/09/05 12:01:14;;;;;;;22.30;5.15;;;32.20;59.00;;;;;;4990373;28;20037;-64
2022/09/05 12:03:59;;;;;;;20.52;5.38;;;32.20;59.00;;;;;;4990779;28;20411;-66
2022/09/05 12:06:55;;;;;;;21.42;5.20;;;32.20;59.90;;;;;;5007658;28;20018;-66
2022/09/05 12:09:40;;;;;;;30.48;6.22;;;32.10;59.30;;;;;;4991293;28;20478;-64
2022/09/05 12:12:34;;;;;;;24.30;5.63;;;32.00;59.50;;;;;;4990922;28;20042;-66
2022/09/05 12:15:22;;;;;;;31.60;9.18;;;31.90;59.90;;;;;;5008347;28;20022;-65
2022/09/05 12:18:03;;;;;;;29.88;8.73;;;31.90;60.50;;;;;;4994522;28;20030;-67
2022/09/05 12:20:37;;;;;;;33.30;9.27;;;31.70;60.70;;;;;;4991212;28;20045;-65
2022/09/05 12:23:42;;;;;;;35.67;10.05;;;31.70;61.30;;;;;;4991156;28;20050;-65
2022/09/05 12:26:42;;;;;;;29.45;10.20;;;31.60;62.40;;;;;;4975097;28;20038;-67
2022/09/05 12:29:18;;;;;;;24.20;8.38;;;31.60;62.90;;;;;;5008613;28;20026;-64
2022/09/05 12:32:06;;;;;;;31.88;8.52;;;31.50;63.50;;;;;;4994544;28;20128;-65
2022/09/05 12:34:52;;;;;;;26.20;7.80;;;31.50;64.30;;;;;;5010172;28;20034;-63
2022/09/05 12:37:44;;;;;;;23.35;6.78;;;31.50;65.60;;;;;;4993460;28;20416;-66
2022/09/05 12:40:14;;;;;;;18.02;5.80;;;31.50;66.50;;;;;;4994633;28;20087;-64
2022/09/05 12:42:59;;;;;;;25.02;5.82;;;31.50;67.70;;;;;;4977551;28;20026;-64
2022/09/05 12:45:44;;;;;;;17.52;5.45;;;31.40;68.70;;;;;;4994098;28;20049;-65
2022/09/05 12:48:13;;;;;;;17.10;4.57;;;31.40;69.60;;;;;;4992910;28;20038;-65
2022/09/05 12:50:56;;;;;;;17.35;4.18;;;31.40;70.60;;;;;;4994181;28;20025;-65
2022/09/05 12:53:24;;;;;;;12.38;3.42;;;31.40;71.40;;;;;;4993095;28;20395;-64
2022/09/05 12:56:00;;;;;;;11.65;3.33;;;31.40;72.50;;;;;;4976546;28;20026;-64
2022/09/05 12:58:34;;;;;;;17.13;3.80;;;31.30;73.40;;;;;;5007560;28;20087;-65
2022/09/05 13:01:15;;;;;;;20.13;3.22;;;31.30;74.30;;;;;;4978445;28;20421;-65
2022/09/05 13:03:48;;;;;;;17.33;3.10;;;31.30;75.80;;;;;;4991621;28;20085;-66
2022/09/05 13:06:29;;;;;;;9.93;3.00;;;31.20;76.60;;;;;;5009626;28;20109;-65
2022/09/05 13:09:05;;;;;;;11.52;3.05;;;31.20;76.90;;;;;;4994178;28;20026;-65
2022/09/05 13:11:44;;;;;;;13.02;2.80;;;31.20;77.90;;;;;;4993147;28;20118;-65
2022/09/05 13:14:35;;;;;;;74.07;6.10;;;31.10;78.60;;;;;;4978624;28;20148;-65
2022/09/05 13:17:06;;;;;;;17.85;3.22;;;31.10;78.90;;;;;;4992790;28;20137;-65
2022/09/05 13:19:50;;;;;;;11.80;2.92;;;31.20;79.00;;;;;;4999014;23;20042;-65
2022/09/05 13:22:21;;;;;;;12.40;3.40;;;31.10;79.60;;;;;;5013201;28;20399;-65
2022/09/05 13:24:57;;;;;;;13.80;4.40;;;31.10;79.80;;;;;;5023487;28;20637;-65
2022/09/05 13:27:38;;;;;;;19.95;4.50;;;31.10;79.90;;;;;;5027932;28;20075;-63
2022/09/05 13:30:13;;;;;;;21.55;4.60;;;31.20;80.70;;;;;;5031568;28;20049;-65
2022/09/05 13:32:48;;;;;;;17.45;5.05;;;31.10;81.10;;;;;;5022165;28;20096;-64
2022/09/05 13:35:27;;;;;;;13.87;4.40;;;31.10;81.50;;;;;;5022749;28;20491;-65
2022/09/05 13:38:15;;;;;;;15.75;5.03;;;31.10;82.20;;;;;;5026969;28;20029;-65
2022/09/05 13:40:48;;;;;;;21.00;5.75;;;31.00;82.70;;;;;;5027038;28;21188;-66
2022/09/05 13:43:26;;;;;;;15.27;5.20;;;31.00;83.20;;;;;;5026685;28;20079;-66
2022/09/05 13:46:03;;;;;;;21.98;5.28;;;31.10;83.60;;;;;;4995391;28;20021;-65
2022/09/05 13:48:54;;;;;;;24.38;5.50;;;31.10;84.00;;;;;;5012721;28;20036;-65
2022/09/05 13:51:34;;;;;;;25.33;4.63;;;31.10;84.20;;;;;;5013191;28;20061;-65
2022/09/05 13:54:32;;;;;;;22.48;4.85;;;31.20;84.30;;;;;;5031833;28;20040;-66
2022/09/05 13:57:20;;;;;;;18.55;4.50;;;31.20;84.60;;;;;;5019315;28;20030;-66
2022/09/05 14:00:05;;;;;;;24.58;4.60;;;31.20;85.10;;;;;;5013856;28;20689;-65